sensor_id;sensor_type;location;lat;lon;timestamp;P1;durP1;ratioP1;P2;durP2;ratioP2
59476;SDS011;45713;49.766;6.592;2023-09-19T00:01:44;12.10;;;7.40;;
59476;SDS011;45713;49.766;6.592;2023-09-19T00:04:11;15.60;;;7.20;;
59476;SDS011;45713;49.766;6.592;2023-09-19T00:06:40;14.38;;;7.80;;
59476;SDS011;45713;49.766;6.592;2023-09-19T00:09:07;13.07;;;7.82;;
59476;SDS011;45713;49.766;6.592;2023-09-19T00:11:41;14.27;;;8.00;;
59476;SDS011;45713;49.766;6.592;2023-09-19T00:14:08;15.85;;;8.63;;
59476;SDS011;45713;49.766;6.592;2023-09-19T00:16:36;14.23;;;8.70;;
59476;SDS011;45713;49.766;6.592;2023-09-19T00:19:02;11.70;;;8.37;;
59476;SDS011;45713;49.766;6.592;2023-09-19T00:21:31;12.55;;;8.25;;
59476;SDS011;45713;49.766;6.592;2023-09-19T00:23:58;15.23;;;8.63;;
59476;SDS011;45713;49.766;6.592;2023-09-19T00:26:36;15.13;;;8.50;;
59476;SDS011;45713;49.766;6.592;2023-09-19T00:29:03;14.80;;;8.40;;
59476;SDS011;45713;49.766;6.592;2023-09-19T00:31:29;13.52;;;7.95;;
59476;SDS011;45713;49.766;6.592;2023-09-19T00:33:58;12.38;;;7.53;;
59476;SDS011;45713;49.766;6.592;2023-09-19T00:36:29;10.80;;;7.28;;
59476;SDS011;45713;49.766;6.592;2023-09-19T00:48:09;10.93;;;6.53;;
59476;SDS011;45713;49.766;6.592;2023-09-19T00:50:35;13.00;;;6.70;;
59476;SDS011;45713;49.766;6.592;2023-09-19T01:29:39;9.80;;;6.50;;
59476;SDS011;45713;49.766;6.592;2023-09-19T01:32:13;11.63;;;6.38;;
59476;SDS011;45713;49.766;6.592;2023-09-19T01:34:53;10.88;;;6.65;;
59476;SDS011;45713;49.766;6.592;2023-09-19T01:37:21;12.23;;;5.75;;
59476;SDS011;45713;49.766;6.592;2023-09-19T01:40:06;12.30;;;6.45;;
59476;SDS011;45713;49.766;6.592;2023-09-19T01:45:12;13.70;;;6.28;;
59476;SDS011;45713;49.766;6.592;2023-09-19T01:47:46;11.55;;;6.05;;
59476;SDS011;45713;49.766;6.592;2023-09-19T01:52:43;11.85;;;6.03;;
59476;SDS011;45713;49.766;6.592;2023-09-19T01:55:11;13.68;;;6.25;;
59476;SDS011;45713;49.766;6.592;2023-09-19T01:57:51;14.73;;;6.38;;
59476;SDS011;45713;49.766;6.592;2023-09-19T02:00:20;12.45;;;6.15;;
59476;SDS011;45713;49.766;6.592;2023-09-19T02:02:47;8.60;;;5.38;;
59476;SDS011;45713;49.766;6.592;2023-09-19T02:05:21;10.60;;;5.57;;
59476;SDS011;45713;49.766;6.592;2023-09-19T02:07:49;11.70;;;6.43;;
59476;SDS011;45713;49.766;6.592;2023-09-19T02:10:18;9.48;;;5.97;;
59476;SDS011;45713;49.766;6.592;2023-09-19T02:12:44;17.25;;;6.43;;
59476;SDS011;45713;49.766;6.592;2023-09-19T02:15:17;9.98;;;7.03;;
59476;SDS011;45713;49.766;6.592;2023-09-19T02:17:43;16.73;;;7.22;;
59476;SDS011;45713;49.766;6.592;2023-09-19T02:20:11;13.00;;;7.68;;
59476;SDS011;45713;49.766;6.592;2023-09-19T02:22:40;13.68;;;7.95;;
59476;SDS011;45713;49.766;6.592;2023-09-19T02:25:09;12.95;;;7.28;;
59476;SDS011;45713;49.766;6.592;2023-09-19T02:27:36;14.85;;;7.32;;
59476;SDS011;45713;49.766;6.592;2023-09-19T02:30:02;12.70;;;6.38;;
59476;SDS011;45713;49.766;6.592;2023-09-19T02:32:31;11.05;;;6.85;;
59476;SDS011;45713;49.766;6.592;2023-09-19T02:35:04;11.63;;;6.82;;
59476;SDS011;45713;49.766;6.592;2023-09-19T02:37:31;12.32;;;6.43;;
59476;SDS011;45713;49.766;6.592;2023-09-19T02:39:58;13.82;;;6.00;;
59476;SDS011;45713;49.766;6.592;2023-09-19T02:42:24;11.02;;;5.90;;
59476;SDS011;45713;49.766;6.592;2023-09-19T02:44:56;9.98;;;6.50;;
59476;SDS011;45713;49.766;6.592;2023-09-19T02:47:22;13.05;;;6.40;;
59476;SDS011;45713;49.766;6.592;2023-09-19T02:49:48;11.75;;;5.55;;
59476;SDS011;45713;49.766;6.592;2023-09-19T02:52:14;12.65;;;6.03;;
59476;SDS011;45713;49.766;6.592;2023-09-19T02:54:40;12.32;;;5.97;;
59476;SDS011;45713;49.766;6.592;2023-09-19T02:57:10;10.88;;;5.78;;
59476;SDS011;45713;49.766;6.592;2023-09-19T02:59:39;17.10;;;7.03;;
59476;SDS011;45713;49.766;6.592;2023-09-19T03:02:06;12.60;;;5.97;;
59476;SDS011;45713;49.766;6.592;2023-09-19T03:04:34;10.25;;;6.07;;
59476;SDS011;45713;49.766;6.592;2023-09-19T03:07:01;11.40;;;6.03;;
59476;SDS011;45713;49.766;6.592;2023-09-19T03:09:27;10.48;;;5.40;;
59476;SDS011;45713;49.766;6.592;2023-09-19T03:11:53;10.55;;;5.28;;
59476;SDS011;45713;49.766;6.592;2023-09-19T03:14:19;8.73;;;4.88;;
59476;SDS011;45713;49.766;6.592;2023-09-19T03:16:46;6.45;;;4.78;;
59476;SDS011;45713;49.766;6.592;2023-09-19T03:19:12;6.47;;;4.60;;
59476;SDS011;45713;49.766;6.592;2023-09-19T03:21:43;9.40;;;5.00;;
59476;SDS011;45713;49.766;6.592;2023-09-19T03:24:22;10.15;;;5.22;;
59476;SDS011;45713;49.766;6.592;2023-09-19T03:26:48;10.93;;;5.70;;
59476;SDS011;45713;49.766;6.592;2023-09-19T03:29:14;9.82;;;5.10;;
59476;SDS011;45713;49.766;6.592;2023-09-19T03:31:42;8.18;;;5.25;;
59476;SDS011;45713;49.766;6.592;2023-09-19T03:34:08;8.60;;;5.20;;
59476;SDS011;45713;49.766;6.592;2023-09-19T03:36:34;11.73;;;6.50;;
59476;SDS011;45713;49.766;6.592;2023-09-19T03:39:01;8.40;;;4.95;;
59476;SDS011;45713;49.766;6.592;2023-09-19T03:41:30;10.02;;;5.65;;
59476;SDS011;45713;49.766;6.592;2023-09-19T03:43:59;9.50;;;4.97;;
59476;SDS011;45713;49.766;6.592;2023-09-19T03:46:25;11.65;;;5.57;;
59476;SDS011;45713;49.766;6.592;2023-09-19T03:48:55;7.28;;;4.45;;
59476;SDS011;45713;49.766;6.592;2023-09-19T03:51:21;9.73;;;4.65;;
59476;SDS011;45713;49.766;6.592;2023-09-19T03:53:47;11.20;;;5.05;;
59476;SDS011;45713;49.766;6.592;2023-09-19T03:56:15;8.40;;;4.78;;
59476;SDS011;45713;49.766;6.592;2023-09-19T03:58:47;10.45;;;4.78;;
59476;SDS011;45713;49.766;6.592;2023-09-19T04:01:25;12.13;;;5.07;;
59476;SDS011;45713;49.766;6.592;2023-09-19T04:03:52;9.27;;;5.20;;
59476;SDS011;45713;49.766;6.592;2023-09-19T04:06:19;9.15;;;4.82;;
59476;SDS011;45713;49.766;6.592;2023-09-19T04:08:48;10.05;;;4.40;;
59476;SDS011;45713;49.766;6.592;2023-09-19T04:11:14;11.80;;;4.68;;
59476;SDS011;45713;49.766;6.592;2023-09-19T04:13:40;6.93;;;4.57;;
59476;SDS011;45713;49.766;6.592;2023-09-19T04:16:06;7.93;;;4.45;;
59476;SDS011;45713;49.766;6.592;2023-09-19T04:18:38;11.15;;;4.75;;
59476;SDS011;45713;49.766;6.592;2023-09-19T04:21:04;10.23;;;4.90;;
59476;SDS011;45713;49.766;6.592;2023-09-19T04:23:31;13.93;;;4.85;;
59476;SDS011;45713;49.766;6.592;2023-09-19T04:25:57;7.15;;;4.18;;
59476;SDS011;45713;49.766;6.592;2023-09-19T04:28:24;8.45;;;4.30;;
59476;SDS011;45713;49.766;6.592;2023-09-19T04:30:50;10.77;;;4.95;;
59476;SDS011;45713;49.766;6.592;2023-09-19T04:33:16;12.93;;;5.20;;
59476;SDS011;45713;49.766;6.592;2023-09-19T04:35:42;12.27;;;5.30;;
59476;SDS011;45713;49.766;6.592;2023-09-19T04:38:09;12.40;;;4.82;;
59476;SDS011;45713;49.766;6.592;2023-09-19T04:40:39;15.82;;;7.05;;
59476;SDS011;45713;49.766;6.592;2023-09-19T04:43:14;11.38;;;5.95;;
59476;SDS011;45713;49.766;6.592;2023-09-19T04:45:43;11.25;;;5.40;;
59476;SDS011;45713;49.766;6.592;2023-09-19T04:48:09;10.25;;;5.00;;
59476;SDS011;45713;49.766;6.592;2023-09-19T04:50:36;14.20;;;5.70;;
59476;SDS011;45713;49.766;6.592;2023-09-19T04:53:02;9.48;;;5.28;;
59476;SDS011;45713;49.766;6.592;2023-09-19T04:55:28;10.05;;;5.28;;
59476;SDS011;45713;49.766;6.592;2023-09-19T04:57:58;10.55;;;5.55;;
59476;SDS011;45713;49.766;6.592;2023-09-19T05:00:24;9.18;;;5.15;;
59476;SDS011;45713;49.766;6.592;2023-09-19T05:02:53;15.75;;;5.07;;
59476;SDS011;45713;49.766;6.592;2023-09-19T05:05:20;12.50;;;5.53;;
59476;SDS011;45713;49.766;6.592;2023-09-19T05:07:50;7.70;;;4.80;;
59476;SDS011;45713;49.766;6.592;2023-09-19T05:10:20;10.15;;;5.50;;
59476;SDS011;45713;49.766;6.592;2023-09-19T05:12:47;10.75;;;5.25;;
59476;SDS011;45713;49.766;6.592;2023-09-19T05:15:13;11.38;;;6.50;;
59476;SDS011;45713;49.766;6.592;2023-09-19T05:17:51;8.68;;;5.03;;
59476;SDS011;45713;49.766;6.592;2023-09-19T05:20:23;12.07;;;6.25;;
59476;SDS011;45713;49.766;6.592;2023-09-19T05:22:57;11.32;;;5.10;;
59476;SDS011;45713;49.766;6.592;2023-09-19T05:25:26;9.00;;;4.85;;
59476;SDS011;45713;49.766;6.592;2023-09-19T05:27:54;20.00;;;7.28;;
59476;SDS011;45713;49.766;6.592;2023-09-19T05:30:30;11.88;;;4.97;;
59476;SDS011;45713;49.766;6.592;2023-09-19T05:32:59;13.73;;;5.75;;
59476;SDS011;45713;49.766;6.592;2023-09-19T05:35:28;11.65;;;5.70;;
59476;SDS011;45713;49.766;6.592;2023-09-19T05:37:54;9.13;;;5.10;;
59476;SDS011;45713;49.766;6.592;2023-09-19T05:40:21;10.10;;;5.03;;
59476;SDS011;45713;49.766;6.592;2023-09-19T05:42:47;12.23;;;5.32;;
59476;SDS011;45713;49.766;6.592;2023-09-19T05:45:17;12.65;;;5.63;;
59476;SDS011;45713;49.766;6.592;2023-09-19T05:47:52;10.02;;;4.75;;
59476;SDS011;45713;49.766;6.592;2023-09-19T05:50:33;11.52;;;5.03;;
59476;SDS011;45713;49.766;6.592;2023-09-19T05:53:08;8.13;;;4.95;;
59476;SDS011;45713;49.766;6.592;2023-09-19T05:55:37;8.68;;;4.80;;
59476;SDS011;45713;49.766;6.592;2023-09-19T05:58:06;11.80;;;5.85;;
59476;SDS011;45713;49.766;6.592;2023-09-19T06:00:32;8.32;;;5.07;;
59476;SDS011;45713;49.766;6.592;2023-09-19T06:02:59;9.13;;;5.07;;
59476;SDS011;45713;49.766;6.592;2023-09-19T06:05:28;10.65;;;4.75;;
59476;SDS011;45713;49.766;6.592;2023-09-19T06:07:57;9.32;;;4.65;;
59476;SDS011;45713;49.766;6.592;2023-09-19T06:10:28;13.05;;;4.97;;
59476;SDS011;45713;49.766;6.592;2023-09-19T06:12:59;9.32;;;4.10;;
59476;SDS011;45713;49.766;6.592;2023-09-19T06:15:25;13.33;;;4.83;;
59476;SDS011;45713;49.766;6.592;2023-09-19T06:17:52;10.23;;;4.50;;
59476;SDS011;45713;49.766;6.592;2023-09-19T06:20:24;8.30;;;3.80;;
59476;SDS011;45713;49.766;6.592;2023-09-19T06:22:50;16.90;;;4.78;;
59476;SDS011;45713;49.766;6.592;2023-09-19T06:25:17;7.85;;;4.25;;
59476;SDS011;45713;49.766;6.592;2023-09-19T06:27:49;9.93;;;4.25;;
59476;SDS011;45713;49.766;6.592;2023-09-19T06:30:23;12.63;;;4.60;;
59476;SDS011;45713;49.766;6.592;2023-09-19T06:32:54;12.68;;;4.18;;
59476;SDS011;45713;49.766;6.592;2023-09-19T06:35:21;10.05;;;4.63;;
59476;SDS011;45713;49.766;6.592;2023-09-19T06:37:47;8.35;;;4.07;;
59476;SDS011;45713;49.766;6.592;2023-09-19T06:40:13;9.43;;;4.65;;
59476;SDS011;45713;49.766;6.592;2023-09-19T06:42:40;11.90;;;4.60;;
59476;SDS011;45713;49.766;6.592;2023-09-19T06:45:15;9.10;;;4.70;;
59476;SDS011;45713;49.766;6.592;2023-09-19T06:47:48;10.65;;;4.57;;
59476;SDS011;45713;49.766;6.592;2023-09-19T06:50:15;10.18;;;4.25;;
59476;SDS011;45713;49.766;6.592;2023-09-19T06:52:44;10.23;;;4.60;;
59476;SDS011;45713;49.766;6.592;2023-09-19T06:55:21;8.80;;;4.20;;
59476;SDS011;45713;49.766;6.592;2023-09-19T06:57:50;10.48;;;4.15;;
59476;SDS011;45713;49.766;6.592;2023-09-19T07:00:19;9.30;;;4.50;;
59476;SDS011;45713;49.766;6.592;2023-09-19T07:03:21;8.18;;;3.90;;
59476;SDS011;45713;49.766;6.592;2023-09-19T07:05:43;8.27;;;4.07;;
59476;SDS011;45713;49.766;6.592;2023-09-19T07:08:10;10.10;;;4.05;;
59476;SDS011;45713;49.766;6.592;2023-09-19T07:10:39;12.23;;;4.80;;
59476;SDS011;45713;49.766;6.592;2023-09-19T07:13:06;12.00;;;4.18;;
59476;SDS011;45713;49.766;6.592;2023-09-19T07:15:36;9.95;;;4.18;;
59476;SDS011;45713;49.766;6.592;2023-09-19T07:18:06;12.43;;;4.78;;
59476;SDS011;45713;49.766;6.592;2023-09-19T07:20:37;11.90;;;4.13;;
59476;SDS011;45713;49.766;6.592;2023-09-19T07:23:10;8.98;;;3.85;;
59476;SDS011;45713;49.766;6.592;2023-09-19T07:25:39;13.82;;;4.55;;
59476;SDS011;45713;49.766;6.592;2023-09-19T07:28:05;11.38;;;4.63;;
59476;SDS011;45713;49.766;6.592;2023-09-19T07:30:31;8.43;;;4.13;;
59476;SDS011;45713;49.766;6.592;2023-09-19T07:32:57;8.90;;;4.20;;
59476;SDS011;45713;49.766;6.592;2023-09-19T07:35:27;11.93;;;4.57;;
59476;SDS011;45713;49.766;6.592;2023-09-19T07:37:53;9.50;;;4.18;;
59476;SDS011;45713;49.766;6.592;2023-09-19T07:40:21;10.18;;;4.25;;
59476;SDS011;45713;49.766;6.592;2023-09-19T07:42:51;10.90;;;4.05;;
59476;SDS011;45713;49.766;6.592;2023-09-19T07:45:17;13.45;;;4.05;;
59476;SDS011;45713;49.766;6.592;2023-09-19T07:47:50;6.47;;;3.65;;
59476;SDS011;45713;49.766;6.592;2023-09-19T07:50:19;9.35;;;3.70;;
59476;SDS011;45713;49.766;6.592;2023-09-19T07:52:49;8.02;;;4.20;;
59476;SDS011;45713;49.766;6.592;2023-09-19T07:55:18;7.90;;;3.40;;
59476;SDS011;45713;49.766;6.592;2023-09-19T07:57:48;9.52;;;3.53;;
59476;SDS011;45713;49.766;6.592;2023-09-19T08:00:14;6.60;;;3.60;;
59476;SDS011;45713;49.766;6.592;2023-09-19T08:02:40;9.93;;;3.90;;
59476;SDS011;45713;49.766;6.592;2023-09-19T08:05:10;13.13;;;3.83;;
59476;SDS011;45713;49.766;6.592;2023-09-19T08:07:37;8.07;;;3.42;;
59476;SDS011;45713;49.766;6.592;2023-09-19T08:10:04;8.68;;;3.85;;
59476;SDS011;45713;49.766;6.592;2023-09-19T08:12:32;5.40;;;3.42;;
59476;SDS011;45713;49.766;6.592;2023-09-19T08:15:03;6.75;;;2.95;;
59476;SDS011;45713;49.766;6.592;2023-09-19T08:17:39;9.60;;;3.65;;
59476;SDS011;45713;49.766;6.592;2023-09-19T08:20:16;6.30;;;3.17;;
59476;SDS011;45713;49.766;6.592;2023-09-19T08:22:50;7.90;;;3.10;;
59476;SDS011;45713;49.766;6.592;2023-09-19T08:25:26;6.55;;;3.20;;
59476;SDS011;45713;49.766;6.592;2023-09-19T08:27:54;9.95;;;3.28;;
59476;SDS011;45713;49.766;6.592;2023-09-19T08:30:30;7.15;;;4.38;;
59476;SDS011;45713;49.766;6.592;2023-09-19T08:32:59;6.60;;;3.65;;
59476;SDS011;45713;49.766;6.592;2023-09-19T08:35:26;9.95;;;3.90;;
59476;SDS011;45713;49.766;6.592;2023-09-19T08:37:54;8.43;;;3.20;;
59476;SDS011;45713;49.766;6.592;2023-09-19T08:40:24;8.13;;;3.67;;
59476;SDS011;45713;49.766;6.592;2023-09-19T08:42:53;6.63;;;3.40;;
59476;SDS011;45713;49.766;6.592;2023-09-19T08:45:20;7.57;;;3.10;;
59476;SDS011;45713;49.766;6.592;2023-09-19T08:48:30;7.82;;;3.33;;
59476;SDS011;45713;49.766;6.592;2023-09-19T08:50:49;6.05;;;2.60;;
59476;SDS011;45713;49.766;6.592;2023-09-19T08:56:03;5.60;;;3.13;;
59476;SDS011;45713;49.766;6.592;2023-09-19T08:58:31;6.97;;;3.08;;
59476;SDS011;45713;49.766;6.592;2023-09-19T09:01:00;7.75;;;2.83;;
59476;SDS011;45713;49.766;6.592;2023-09-19T09:03:32;7.35;;;2.88;;
59476;SDS011;45713;49.766;6.592;2023-09-19T09:06:00;6.20;;;2.72;;
59476;SDS011;45713;49.766;6.592;2023-09-19T09:08:36;8.10;;;3.00;;
59476;SDS011;45713;49.766;6.592;2023-09-19T09:11:13;8.90;;;2.67;;
59476;SDS011;45713;49.766;6.592;2023-09-19T09:13:40;6.93;;;2.85;;
59476;SDS011;45713;49.766;6.592;2023-09-19T09:16:14;4.53;;;2.80;;
59476;SDS011;45713;49.766;6.592;2023-09-19T09:18:50;8.00;;;2.92;;
59476;SDS011;45713;49.766;6.592;2023-09-19T09:21:17;8.75;;;2.95;;
59476;SDS011;45713;49.766;6.592;2023-09-19T09:23:46;5.90;;;3.00;;
59476;SDS011;45713;49.766;6.592;2023-09-19T09:27:02;4.43;;;2.63;;
59476;SDS011;45713;49.766;6.592;2023-09-19T09:31:36;6.25;;;2.65;;
59476;SDS011;45713;49.766;6.592;2023-09-19T09:34:03;5.93;;;2.80;;
59476;SDS011;45713;49.766;6.592;2023-09-19T09:36:36;8.57;;;2.80;;
59476;SDS011;45713;49.766;6.592;2023-09-19T09:39:02;8.40;;;2.75;;
59476;SDS011;45713;49.766;6.592;2023-09-19T09:41:41;9.55;;;3.10;;
59476;SDS011;45713;49.766;6.592;2023-09-19T09:44:16;9.27;;;2.88;;
59476;SDS011;45713;49.766;6.592;2023-09-19T09:46:57;7.65;;;2.70;;
59476;SDS011;45713;49.766;6.592;2023-09-19T09:50:01;5.43;;;2.78;;
59476;SDS011;45713;49.766;6.592;2023-09-19T09:52:43;6.38;;;2.83;;
59476;SDS011;45713;49.766;6.592;2023-09-19T09:55:09;8.52;;;2.70;;
59476;SDS011;45713;49.766;6.592;2023-09-19T09:57:35;4.25;;;2.47;;
59476;SDS011;45713;49.766;6.592;2023-09-19T10:00:05;9.80;;;3.03;;
59476;SDS011;45713;49.766;6.592;2023-09-19T10:02:37;7.88;;;2.78;;
59476;SDS011;45713;49.766;6.592;2023-09-19T10:05:15;5.40;;;2.20;;
59476;SDS011;45713;49.766;6.592;2023-09-19T10:08:10;6.00;;;3.25;;
59476;SDS011;45713;49.766;6.592;2023-09-19T10:10:38;5.65;;;2.53;;
59476;SDS011;45713;49.766;6.592;2023-09-19T10:13:11;11.25;;;2.78;;
59476;SDS011;45713;49.766;6.592;2023-09-19T10:15:39;6.35;;;2.65;;
59476;SDS011;45713;49.766;6.592;2023-09-19T10:18:14;5.93;;;2.42;;
59476;SDS011;45713;49.766;6.592;2023-09-19T10:20:43;5.70;;;2.45;;
59476;SDS011;45713;49.766;6.592;2023-09-19T10:23:11;7.85;;;2.88;;
59476;SDS011;45713;49.766;6.592;2023-09-19T10:25:45;5.97;;;2.40;;
59476;SDS011;45713;49.766;6.592;2023-09-19T10:28:13;5.65;;;2.53;;
59476;SDS011;45713;49.766;6.592;2023-09-19T10:30:46;6.35;;;2.25;;
59476;SDS011;45713;49.766;6.592;2023-09-19T10:33:17;5.72;;;2.47;;
59476;SDS011;45713;49.766;6.592;2023-09-19T10:35:48;4.47;;;2.20;;
59476;SDS011;45713;49.766;6.592;2023-09-19T10:38:17;9.82;;;3.08;;
59476;SDS011;45713;49.766;6.592;2023-09-19T10:40:52;6.18;;;2.25;;
59476;SDS011;45713;49.766;6.592;2023-09-19T10:43:19;5.50;;;2.03;;
59476;SDS011;45713;49.766;6.592;2023-09-19T10:45:52;5.18;;;2.10;;
59476;SDS011;45713;49.766;6.592;2023-09-19T10:48:20;6.97;;;2.47;;
59476;SDS011;45713;49.766;6.592;2023-09-19T10:56:32;3.92;;;2.33;;
59476;SDS011;45713;49.766;6.592;2023-09-19T10:59:13;6.40;;;2.00;;
59476;SDS011;45713;49.766;6.592;2023-09-19T11:01:50;6.95;;;1.80;;
59476;SDS011;45713;49.766;6.592;2023-09-19T11:04:26;4.50;;;2.00;;
59476;SDS011;45713;49.766;6.592;2023-09-19T11:18:06;4.32;;;1.80;;
59476;SDS011;45713;49.766;6.592;2023-09-19T11:20:54;6.60;;;2.00;;
59476;SDS011;45713;49.766;6.592;2023-09-19T11:23:36;5.93;;;2.25;;
59476;SDS011;45713;49.766;6.592;2023-09-19T11:26:10;4.18;;;1.95;;
59476;SDS011;45713;49.766;6.592;2023-09-19T11:29:06;4.38;;;1.88;;
59476;SDS011;45713;49.766;6.592;2023-09-19T11:31:42;5.28;;;2.20;;
59476;SDS011;45713;49.766;6.592;2023-09-19T11:36:58;6.05;;;2.05;;
59476;SDS011;45713;49.766;6.592;2023-09-19T11:39:28;5.75;;;2.13;;
59476;SDS011;45713;49.766;6.592;2023-09-19T11:42:00;3.75;;;2.40;;
59476;SDS011;45713;49.766;6.592;2023-09-19T11:44:47;3.75;;;1.90;;
59476;SDS011;45713;49.766;6.592;2023-09-19T11:47:16;5.22;;;2.03;;
59476;SDS011;45713;49.766;6.592;2023-09-19T11:49:47;3.97;;;2.00;;
59476;SDS011;45713;49.766;6.592;2023-09-19T11:52:21;4.90;;;2.15;;
59476;SDS011;45713;49.766;6.592;2023-09-19T11:54:54;4.75;;;2.08;;
59476;SDS011;45713;49.766;6.592;2023-09-19T11:57:22;4.00;;;2.28;;
59476;SDS011;45713;49.766;6.592;2023-09-19T11:59:51;6.50;;;2.17;;
59476;SDS011;45713;49.766;6.592;2023-09-19T12:02:27;6.32;;;2.10;;
59476;SDS011;45713;49.766;6.592;2023-09-19T12:04:56;4.15;;;1.75;;
59476;SDS011;45713;49.766;6.592;2023-09-19T12:07:22;4.45;;;2.20;;
59476;SDS011;45713;49.766;6.592;2023-09-19T12:10:02;4.63;;;2.10;;
59476;SDS011;45713;49.766;6.592;2023-09-19T12:12:29;4.60;;;1.98;;
59476;SDS011;45713;49.766;6.592;2023-09-19T12:14:57;9.98;;;2.13;;
59476;SDS011;45713;49.766;6.592;2023-09-19T12:17:34;3.83;;;1.92;;
59476;SDS011;45713;49.766;6.592;2023-09-19T12:20:03;5.70;;;2.10;;
59476;SDS011;45713;49.766;6.592;2023-09-19T12:22:42;4.53;;;2.10;;
59476;SDS011;45713;49.766;6.592;2023-09-19T12:25:15;5.82;;;2.58;;
59476;SDS011;45713;49.766;6.592;2023-09-19T12:27:46;4.97;;;2.10;;
59476;SDS011;45713;49.766;6.592;2023-09-19T12:30:20;5.95;;;2.17;;
59476;SDS011;45713;49.766;6.592;2023-09-19T12:32:55;5.55;;;2.15;;
59476;SDS011;45713;49.766;6.592;2023-09-19T12:35:26;2.70;;;1.70;;
59476;SDS011;45713;49.766;6.592;2023-09-19T12:37:53;5.28;;;2.22;;
59476;SDS011;45713;49.766;6.592;2023-09-19T12:40:33;4.53;;;2.03;;
59476;SDS011;45713;49.766;6.592;2023-09-19T12:43:03;2.80;;;1.60;;
59476;SDS011;45713;49.766;6.592;2023-09-19T12:45:30;3.72;;;2.00;;
59476;SDS011;45713;49.766;6.592;2023-09-19T12:50:59;3.42;;;1.80;;
59476;SDS011;45713;49.766;6.592;2023-09-19T12:53:30;3.92;;;1.92;;
59476;SDS011;45713;49.766;6.592;2023-09-19T12:56:04;4.43;;;2.10;;
59476;SDS011;45713;49.766;6.592;2023-09-19T13:01:28;4.82;;;2.13;;
59476;SDS011;45713;49.766;6.592;2023-09-19T13:06:48;2.97;;;1.70;;
59476;SDS011;45713;49.766;6.592;2023-09-19T13:09:14;3.75;;;2.25;;
59476;SDS011;45713;49.766;6.592;2023-09-19T13:11:41;4.03;;;2.20;;
59476;SDS011;45713;49.766;6.592;2023-09-19T13:14:25;5.55;;;2.17;;
59476;SDS011;45713;49.766;6.592;2023-09-19T13:17:09;3.97;;;1.90;;
59476;SDS011;45713;49.766;6.592;2023-09-19T13:19:51;4.68;;;1.83;;
59476;SDS011;45713;49.766;6.592;2023-09-19T13:22:41;4.30;;;1.90;;
59476;SDS011;45713;49.766;6.592;2023-09-19T13:25:21;3.83;;;2.05;;
59476;SDS011;45713;49.766;6.592;2023-09-19T13:27:59;3.35;;;2.00;;
59476;SDS011;45713;49.766;6.592;2023-09-19T13:30:29;5.22;;;1.85;;
59476;SDS011;45713;49.766;6.592;2023-09-19T13:35:44;2.83;;;1.77;;
59476;SDS011;45713;49.766;6.592;2023-09-19T13:38:10;5.07;;;2.00;;
59476;SDS011;45713;49.766;6.592;2023-09-19T13:40:40;5.72;;;2.00;;
59476;SDS011;45713;49.766;6.592;2023-09-19T13:43:09;4.30;;;1.90;;
59476;SDS011;45713;49.766;6.592;2023-09-19T13:45:36;5.30;;;2.13;;
59476;SDS011;45713;49.766;6.592;2023-09-19T13:48:02;4.60;;;1.80;;
59476;SDS011;45713;49.766;6.592;2023-09-19T13:50:28;3.25;;;2.00;;
59476;SDS011;45713;49.766;6.592;2023-09-19T13:52:54;6.85;;;2.05;;
59476;SDS011;45713;49.766;6.592;2023-09-19T13:55:23;4.03;;;1.80;;
59476;SDS011;45713;49.766;6.592;2023-09-19T13:57:50;3.38;;;1.80;;
59476;SDS011;45713;49.766;6.592;2023-09-19T14:02:45;4.78;;;1.83;;
59476;SDS011;45713;49.766;6.592;2023-09-19T14:05:20;7.13;;;1.90;;
59476;SDS011;45713;49.766;6.592;2023-09-19T14:07:46;2.67;;;1.80;;
59476;SDS011;45713;49.766;6.592;2023-09-19T14:10:18;5.18;;;1.98;;
59476;SDS011;45713;49.766;6.592;2023-09-19T14:12:47;3.88;;;2.05;;
59476;SDS011;45713;49.766;6.592;2023-09-19T14:17:39;3.78;;;1.90;;
59476;SDS011;45713;49.766;6.592;2023-09-19T14:20:21;5.13;;;1.90;;
59476;SDS011;45713;49.766;6.592;2023-09-19T14:23:01;5.88;;;2.08;;
59476;SDS011;45713;49.766;6.592;2023-09-19T14:27:55;3.90;;;2.00;;
59476;SDS011;45713;49.766;6.592;2023-09-19T14:30:23;3.28;;;1.83;;
59476;SDS011;45713;49.766;6.592;2023-09-19T14:32:49;3.13;;;1.75;;
59476;SDS011;45713;49.766;6.592;2023-09-19T14:35:18;3.05;;;1.98;;
59476;SDS011;45713;49.766;6.592;2023-09-19T14:37:48;3.70;;;1.85;;
59476;SDS011;45713;49.766;6.592;2023-09-19T14:40:14;3.10;;;2.10;;
59476;SDS011;45713;49.766;6.592;2023-09-19T14:42:44;4.80;;;1.80;;
59476;SDS011;45713;49.766;6.592;2023-09-19T14:45:13;2.65;;;2.10;;
59476;SDS011;45713;49.766;6.592;2023-09-19T14:47:45;3.17;;;1.65;;
59476;SDS011;45713;49.766;6.592;2023-09-19T14:50:17;2.97;;;1.95;;
59476;SDS011;45713;49.766;6.592;2023-09-19T14:52:43;3.10;;;1.90;;
59476;SDS011;45713;49.766;6.592;2023-09-19T14:55:18;3.45;;;2.00;;
59476;SDS011;45713;49.766;6.592;2023-09-19T14:57:48;3.47;;;1.85;;
59476;SDS011;45713;49.766;6.592;2023-09-19T15:00:25;3.50;;;1.90;;
59476;SDS011;45713;49.766;6.592;2023-09-19T15:02:53;3.50;;;2.05;;
59476;SDS011;45713;49.766;6.592;2023-09-19T15:05:22;3.22;;;1.83;;
59476;SDS011;45713;49.766;6.592;2023-09-19T15:07:48;4.45;;;2.00;;
59476;SDS011;45713;49.766;6.592;2023-09-19T15:10:18;3.97;;;2.00;;
59476;SDS011;45713;49.766;6.592;2023-09-19T15:12:47;3.08;;;1.90;;
59476;SDS011;45713;49.766;6.592;2023-09-19T15:15:13;3.33;;;1.98;;
59476;SDS011;45713;49.766;6.592;2023-09-19T15:17:40;3.10;;;2.00;;
59476;SDS011;45713;49.766;6.592;2023-09-19T15:20:06;4.32;;;1.90;;
59476;SDS011;45713;49.766;6.592;2023-09-19T15:22:35;4.15;;;2.00;;
59476;SDS011;45713;49.766;6.592;2023-09-19T15:25:13;6.40;;;2.00;;
59476;SDS011;45713;49.766;6.592;2023-09-19T15:27:43;6.63;;;2.25;;
59476;SDS011;45713;49.766;6.592;2023-09-19T15:30:10;4.07;;;2.20;;
59476;SDS011;45713;49.766;6.592;2023-09-19T15:32:36;2.85;;;1.98;;
59476;SDS011;45713;49.766;6.592;2023-09-19T15:35:05;3.35;;;2.10;;
59476;SDS011;45713;49.766;6.592;2023-09-19T15:37:37;3.17;;;2.00;;
59476;SDS011;45713;49.766;6.592;2023-09-19T15:40:06;4.78;;;2.30;;
59476;SDS011;45713;49.766;6.592;2023-09-19T15:42:35;3.85;;;2.03;;
59476;SDS011;45713;49.766;6.592;2023-09-19T15:45:04;3.80;;;2.00;;
59476;SDS011;45713;49.766;6.592;2023-09-19T15:47:35;3.42;;;1.98;;
59476;SDS011;45713;49.766;6.592;2023-09-19T15:50:05;3.35;;;2.05;;
59476;SDS011;45713;49.766;6.592;2023-09-19T15:52:40;2.63;;;1.80;;
59476;SDS011;45713;49.766;6.592;2023-09-19T15:55:10;5.25;;;2.00;;
59476;SDS011;45713;49.766;6.592;2023-09-19T15:57:39;2.85;;;2.15;;
59476;SDS011;45713;49.766;6.592;2023-09-19T16:00:10;3.58;;;2.13;;
59476;SDS011;45713;49.766;6.592;2023-09-19T16:02:42;4.00;;;2.17;;
59476;SDS011;45713;49.766;6.592;2023-09-19T16:05:10;3.58;;;2.10;;
59476;SDS011;45713;49.766;6.592;2023-09-19T16:07:39;3.38;;;2.15;;
59476;SDS011;45713;49.766;6.592;2023-09-19T16:10:17;2.78;;;2.00;;
59476;SDS011;45713;49.766;6.592;2023-09-19T16:15:16;2.80;;;2.17;;
59476;SDS011;45713;49.766;6.592;2023-09-19T16:17:45;3.53;;;2.08;;
59476;SDS011;45713;49.766;6.592;2023-09-19T16:20:12;4.18;;;1.95;;
59476;SDS011;45713;49.766;6.592;2023-09-19T16:22:42;3.40;;;2.28;;
59476;SDS011;45713;49.766;6.592;2023-09-19T16:25:13;3.22;;;1.90;;
59476;SDS011;45713;49.766;6.592;2023-09-19T16:27:45;4.15;;;2.17;;
59476;SDS011;45713;49.766;6.592;2023-09-19T16:30:17;3.10;;;2.10;;
59476;SDS011;45713;49.766;6.592;2023-09-19T16:32:46;3.33;;;2.10;;
59476;SDS011;45713;49.766;6.592;2023-09-19T16:35:21;2.63;;;2.05;;
59476;SDS011;45713;49.766;6.592;2023-09-19T16:37:47;4.47;;;2.15;;
59476;SDS011;45713;49.766;6.592;2023-09-19T16:40:14;4.45;;;1.95;;